createdAt,value
2023-03-08T00:01:12.230Z,0.0625
2023-03-08T00:06:13.288Z,0
2023-03-08T00:11:14.137Z,-0.0625
2023-03-08T00:16:15.287Z,-0.125
2023-03-08T00:21:16.053Z,-0.125
2023-03-08T00:26:16.901Z,-0.1875
2023-03-08T00:31:17.981Z,-0.3125
2023-03-08T00:36:19.060Z,-0.3125
2023-03-08T00:41:20.098Z,-0.3125
2023-03-08T00:46:21.126Z,-0.4375
2023-03-08T00:51:22.199Z,-0.4375
2023-03-08T00:56:23.273Z,-0.4375
2023-03-08T01:01:24.227Z,-0.4375
2023-03-08T01:06:25.018Z,-0.5
2023-03-08T01:11:25.998Z,-0.5
2023-03-08T01:16:26.927Z,-0.5
2023-03-08T01:21:27.665Z,-0.5625
2023-03-08T01:26:28.652Z,-0.5625
2023-03-08T01:31:29.389Z,-0.5625
2023-03-08T01:36:30.463Z,-0.5625
2023-03-08T01:41:31.473Z,-0.6875
2023-03-08T01:46:32.308Z,-0.6875
2023-03-08T01:51:33.074Z,-0.8125
2023-03-08T01:56:34.035Z,-0.75
2023-03-08T02:01:34.832Z,-0.75
2023-03-08T02:06:35.835Z,-0.8125
2023-03-08T02:11:36.708Z,-0.8125
2023-03-08T02:16:38.224Z,-0.8125
2023-03-08T02:21:38.635Z,-0.875
2023-03-08T02:26:39.580Z,-0.875
2023-03-08T02:31:40.428Z,-0.875
2023-03-08T02:36:41.377Z,-0.9375
2023-03-08T02:41:42.521Z,-0.875
2023-03-08T02:46:43.323Z,-0.8125
2023-03-08T02:51:44.638Z,-0.875
2023-03-08T02:56:45.547Z,-0.9375
2023-03-08T03:01:46.415Z,-1
2023-03-08T03:06:47.386Z,-1
2023-03-08T03:11:48.315Z,-0.875
2023-03-08T03:16:49.316Z,-0.875
2023-03-08T03:21:50.052Z,-0.8125
2023-03-08T03:26:51.058Z,-0.875
2023-03-08T03:31:51.934Z,-0.8125
2023-03-08T03:36:52.837Z,-0.875
2023-03-08T03:41:53.970Z,-0.8125
2023-03-08T03:46:54.738Z,-0.75
2023-03-08T03:51:55.690Z,-0.625
2023-03-08T03:56:56.530Z,-0.5
2023-03-08T04:01:57.519Z,-0.5
2023-03-08T04:06:58.413Z,-0.5
2023-03-08T04:11:59.615Z,-0.6875
2023-03-08T04:17:00.571Z,-0.8125
2023-03-08T04:22:01.470Z,-0.8125
2023-03-08T04:27:02.382Z,-0.875
2023-03-08T04:32:03.216Z,-0.875
2023-03-08T04:37:04.105Z,-0.9375
2023-03-08T04:42:05.076Z,-1
2023-03-08T04:47:06.344Z,-1.0625
2023-03-08T04:52:07.306Z,-1.0625
2023-03-08T04:57:08.232Z,-1.1875
2023-03-08T05:02:09.243Z,-1.3125
2023-03-08T05:07:10.175Z,-1.5625
2023-03-08T05:12:11.129Z,-1.375
2023-03-08T05:17:12.181Z,-0.875
2023-03-08T05:22:12.983Z,-1
2023-03-08T05:27:13.899Z,-0.875
2023-03-08T05:32:14.940Z,-0.875
2023-03-08T05:37:15.892Z,-1
2023-03-08T05:42:16.796Z,-1.0625
2023-03-08T05:47:17.652Z,-1.0625
2023-03-08T05:52:18.762Z,-1
2023-03-08T05:57:19.515Z,-1
2023-03-08T06:02:20.736Z,-1
2023-03-08T06:07:21.748Z,-0.9375
2023-03-08T06:12:24.014Z,-0.9375
2023-03-08T06:17:25.238Z,-0.8125
2023-03-08T06:22:26.178Z,-0.75
2023-03-08T06:27:27.159Z,-0.75
2023-03-08T06:32:28.174Z,-0.6875
2023-03-08T06:37:29.223Z,-0.5
2023-03-08T06:42:40.524Z,-0.4375
2023-03-08T06:47:31.000Z,-0.1875
2023-03-08T06:52:32.000Z,0.125
2023-03-08T06:57:32.879Z,0.25
2023-03-08T07:02:33.878Z,0.3125
2023-03-08T07:07:34.897Z,0.3125
2023-03-08T07:12:35.829Z,0.625
2023-03-08T07:17:36.946Z,0.75
2023-03-08T07:22:37.933Z,2.5625
2023-03-08T07:27:38.787Z,4.125
2023-03-08T07:32:39.964Z,6.0625
2023-03-08T07:37:40.810Z,6.1875
2023-03-08T07:42:41.648Z,7
2023-03-08T07:47:42.578Z,7.125
2023-03-08T07:52:43.420Z,7.0625
2023-03-08T07:57:44.390Z,7.3125
2023-03-08T08:02:45.197Z,6.875
2023-03-08T08:07:46.258Z,6.25
2023-03-08T08:12:47.296Z,7.1875
2023-03-08T08:17:48.360Z,9.4375
2023-03-08T08:22:49.112Z,9.0625
2023-03-08T08:27:49.976Z,8.8125
2023-03-08T08:32:50.953Z,6.125
2023-03-08T08:37:51.843Z,4.125
2023-03-08T08:42:52.938Z,4.5
2023-03-08T08:47:53.838Z,4
2023-03-08T08:52:54.860Z,4
2023-03-08T08:57:56.035Z,4.0625
2023-03-08T09:02:56.947Z,4.125
2023-03-08T09:07:57.829Z,4.5625
2023-03-08T09:12:58.978Z,4.3125
2023-03-08T09:18:00.136Z,4.125
2023-03-08T09:23:00.702Z,4.125
2023-03-08T09:28:01.688Z,4.25
2023-03-08T09:33:02.563Z,4.625
2023-03-08T09:38:03.828Z,4.625
2023-03-08T09:43:04.716Z,4.5
2023-03-08T09:48:05.514Z,4.875
2023-03-08T09:53:06.291Z,5.4375
2023-03-08T09:58:07.219Z,5.4375
2023-03-08T10:03:08.303Z,5.75
2023-03-08T10:08:09.569Z,5.625
2023-03-08T10:13:10.044Z,5.375
2023-03-08T10:18:13.541Z,5.375
2023-03-08T10:23:14.644Z,5.3125
2023-03-08T10:28:15.479Z,5.125
2023-03-08T10:33:16.469Z,5.1875
2023-03-08T10:38:17.563Z,5.25
2023-03-08T10:43:18.667Z,5.4375
2023-03-08T10:48:19.609Z,6.1875
2023-03-08T10:53:20.600Z,6.25
2023-03-08T10:58:21.572Z,6.0625
2023-03-08T11:03:22.372Z,5.4375
2023-03-08T11:08:23.322Z,5.3125
2023-03-08T11:13:24.170Z,5.4375
2023-03-08T11:18:25.066Z,5.1875
2023-03-08T11:23:25.862Z,5.75
2023-03-08T11:28:26.603Z,5.875
2023-03-08T11:33:27.954Z,6
2023-03-08T11:38:29.143Z,6.0625
2023-03-08T11:43:29.776Z,5.6875
2023-03-08T11:48:30.662Z,6.125
2023-03-08T11:53:31.550Z,6
2023-03-08T11:58:32.652Z,5.625
2023-03-08T12:03:33.850Z,5.8125
2023-03-08T12:08:34.657Z,5.8125
2023-03-08T12:13:35.649Z,6
2023-03-08T12:18:37.251Z,6
2023-03-08T12:23:37.570Z,5.75
2023-03-08T12:28:38.566Z,6.4375
2023-03-08T12:33:39.615Z,5.8125
2023-03-08T12:38:40.496Z,5.6875
2023-03-08T12:43:41.641Z,5.5625
2023-03-08T12:48:42.467Z,5.1875
2023-03-08T12:53:43.357Z,5.1875
2023-03-08T12:58:44.474Z,5.375
2023-03-08T13:03:45.447Z,5.4375
2023-03-08T13:08:46.147Z,4.9375
2023-03-08T13:13:47.250Z,5
2023-03-08T13:18:48.183Z,5.0625
2023-03-08T13:23:48.996Z,4.8125
2023-03-08T13:28:49.876Z,4.6875
2023-03-08T13:33:50.735Z,4.8125
2023-03-08T13:38:51.876Z,4.875
2023-03-08T13:43:52.964Z,4.5625
2023-03-08T13:48:53.907Z,4.5
2023-03-08T13:53:54.931Z,4.5625
2023-03-08T13:58:55.935Z,4.25
2023-03-08T14:04:02.234Z,4.5625
2023-03-08T14:09:03.700Z,4.0625
2023-03-08T14:14:04.967Z,3.6875
2023-03-08T14:19:05.860Z,3.4375
2023-03-08T14:24:07.151Z,3.375
2023-03-08T14:29:08.265Z,3.125
2023-03-08T14:34:09.135Z,2.9375
2023-03-08T14:39:10.338Z,2.5625
2023-03-08T14:44:11.660Z,2.5
2023-03-08T14:49:13.322Z,2.125
2023-03-08T14:54:15.297Z,1.6875
2023-03-08T14:59:26.717Z,1.875
2023-03-08T15:04:17.190Z,1.875
2023-03-08T15:09:18.037Z,1.9375
2023-03-08T15:14:18.962Z,2
2023-03-08T15:19:19.882Z,2.0625
2023-03-08T15:24:20.860Z,1.9375
2023-03-08T15:29:21.833Z,1.875
2023-03-08T15:34:22.756Z,1.8125
2023-03-08T15:39:23.868Z,1.8125
2023-03-08T15:44:24.686Z,1.875
2023-03-08T15:49:25.640Z,1.5625
2023-03-08T15:54:26.748Z,1.625
2023-03-08T15:59:27.844Z,1.5625
2023-03-08T16:04:28.822Z,1.75
2023-03-08T16:09:29.799Z,1.6875
2023-03-08T16:14:30.921Z,1.5625
2023-03-08T16:19:31.773Z,1.625
2023-03-08T16:24:32.852Z,1.625
2023-03-08T16:29:33.655Z,1.5625
2023-03-08T16:34:34.621Z,1.5625
2023-03-08T16:39:35.598Z,1.3125
2023-03-08T16:44:36.624Z,1.4375
2023-03-08T16:49:37.626Z,1.4375
2023-03-08T16:54:38.509Z,1.5625
2023-03-08T16:59:39.487Z,1.5
2023-03-08T17:04:40.410Z,1.375
2023-03-08T17:09:41.469Z,1.3125
2023-03-08T17:14:42.485Z,1.1875
2023-03-08T17:19:43.967Z,1.25
2023-03-08T17:24:44.463Z,1.1875
2023-03-08T17:29:45.398Z,1.1875
2023-03-08T17:34:46.347Z,1.25
2023-03-08T17:39:47.349Z,1.25
2023-03-08T17:44:48.277Z,1.3125
2023-03-08T17:49:49.285Z,1.3125
2023-03-08T17:54:50.238Z,1.3125
2023-03-08T17:59:51.126Z,1.1875
2023-03-08T18:04:52.120Z,1
2023-03-08T18:09:53.177Z,1
2023-03-08T18:14:54.214Z,0.9375
2023-03-08T18:19:55.070Z,1.0625
2023-03-08T18:24:56.119Z,1.0625
2023-03-08T18:29:56.937Z,1
2023-03-08T18:34:57.882Z,0.9375
2023-03-08T18:39:58.896Z,0.9375
2023-03-08T18:44:59.801Z,0.9375
2023-03-08T18:50:00.928Z,0.9375
2023-03-08T18:55:01.908Z,0.875
2023-03-08T19:00:02.824Z,0.875
2023-03-08T19:05:03.824Z,0.875
2023-03-08T19:10:06.027Z,0.875
2023-03-08T19:15:07.131Z,0.8125
2023-03-08T19:20:08.571Z,0.875
2023-03-08T19:25:08.868Z,0.875
2023-03-08T19:30:09.934Z,0.875
2023-03-08T19:35:10.864Z,0.75
2023-03-08T19:40:11.802Z,0.75
2023-03-08T19:45:12.771Z,0.75
2023-03-08T19:50:13.604Z,0.6875
2023-03-08T19:55:14.761Z,0.625
2023-03-08T20:00:15.957Z,0.6875
2023-03-08T20:05:16.893Z,0.75
2023-03-08T20:10:17.998Z,0.75
2023-03-08T20:15:18.762Z,0.8125
2023-03-08T20:20:19.629Z,0.8125
2023-03-08T20:25:20.473Z,0.875
2023-03-08T20:30:21.546Z,0.875
2023-03-08T20:35:23.946Z,0.8125
2023-03-08T20:40:23.248Z,1
2023-03-08T20:45:24.313Z,1
2023-03-08T20:50:25.162Z,0.875
2023-03-08T20:55:25.955Z,1
2023-03-08T21:00:26.764Z,1.0625
2023-03-08T21:05:27.745Z,1.0625
2023-03-08T21:10:28.832Z,1.125
2023-03-08T21:15:29.656Z,1.125
2023-03-08T21:20:30.609Z,1.1875
2023-03-08T21:25:31.555Z,1.1875
2023-03-08T21:30:32.651Z,1.125
2023-03-08T21:35:33.703Z,1.1875
2023-03-08T21:40:34.637Z,1.1875
2023-03-08T21:45:35.596Z,1.1875
2023-03-08T21:50:36.450Z,1.1875
2023-03-08T21:55:37.534Z,1.1875
2023-03-08T22:00:38.578Z,1.25
2023-03-08T22:05:39.592Z,1.25
2023-03-08T22:10:41.237Z,1.25
2023-03-08T22:15:41.358Z,1.25
2023-03-08T22:20:43.161Z,1.375
2023-03-08T22:25:43.146Z,1.375
2023-03-08T22:30:44.093Z,1.3125
2023-03-08T22:35:45.282Z,1.25
2023-03-08T22:40:46.238Z,1.25
2023-03-08T22:45:47.032Z,1.125
2023-03-08T22:50:47.958Z,1.3125
2023-03-08T22:55:48.719Z,1.25
2023-03-08T23:00:49.641Z,1.25
2023-03-08T23:05:50.516Z,1.25
2023-03-08T23:10:51.395Z,1.125
2023-03-08T23:15:52.673Z,1.25
2023-03-08T23:20:54.249Z,1.25
2023-03-08T23:25:54.795Z,1.1875
2023-03-08T23:30:55.683Z,1.1875
2023-03-08T23:35:56.537Z,1.25
2023-03-08T23:40:57.397Z,1.1875
2023-03-08T23:45:58.427Z,1.25
2023-03-08T23:50:59.277Z,1.125
2023-03-08T23:56:00.308Z,1.125
